Archival Weather

Václav Havel Intl Apt

Prague, Czechia (LKPR)

Report from: Friday, May 26, 2023 2:00 PM CEST
Current time: Sunday, July 14, 2024 12:37 PM CEST

Current weather – Weather history – Daily summaries
Weather forecast

Temperature19.0°C (66.2°F)
Dew point8.0°C (46.4°F)
Winds 7 kts (3.6 m/s, 8.1 mph) Vrb
Winds variableWinds variable from Northwest (310°) to North-Northeast (20°)
Visibility6.2 mi. (10 km)
Clouds Scattered clouds 4,800 ft. (1,463 m)
Altimeter30.27 in.Hg (1025 mB)
Relative humidity49 %
Density altitude230 ft. (70 m)
Remarks No significant changes expected in the next two hours
Flight conditions Visual Meteorological Conditions
Raw dataLKPR 261200Z 35007KT 310V020 9999 SCT048 19/08 Q1025 NOSIG
An error has occurred. This application may no longer respond until reloaded. Reload 🗙